Terminal Aerodrome Forecast
Issued by NWS Burlington, VT

Current Version | Previous Version | Text Only | Print | Product List | Glossary On
Versions: 1 2 3 4 5 6 7 8 9 10 11 12 13 14 15 16
000 FTUS41 KBTV 221720 TAFBTV TAF KBTV 221720Z 2218/2318 22007KT P6SM SCT120 FM230100 00000KT P6SM VCSH SCT080 FM230300 15005KT P6SM -SHRA OVC050 FM231000 16008KT 5SM -SHRA BR OVC035 FM231200 17007KT 6SM -SHRA BR OVC025 FM231500 19011KT 6SM SHRA BR OVC050=

USA.gov is the U.S. government's official web portal to all federal, state and local government web resources and services.